Time;durP1;ratioP1;P1;durP2;ratioP2;P2;SDS_P1;SDS_P2;PMS_P1;PMS_P2;Temp;Humidity;BMP_temperature;BMP_pressure;BME280_temperature;BME280_humidity;BME280_pressure;Samples;Min_cycle;Max_cycle;Signal;HPM_P1;HPM_P2
2022/01/31 00:01:58;;;;;;;;;9.00;6.33;;;;;;;;4972850;28;47268;-94
2022/01/31 00:04:24;;;;;;;;;6.67;5.33;;;;;;;;4976049;28;45457;-93
2022/01/31 00:06:49;;;;;;;;;12.00;9.00;;;;;;;;4961518;28;45842;-94
2022/01/31 00:09:16;;;;;;;;;8.00;6.67;;;;;;;;4965770;28;45397;-95
2022/01/31 00:11:44;;;;;;;;;6.00;4.00;;;;;;;;4964286;28;48392;-94
2022/01/31 00:14:20;;;;;;;;;6.00;6.00;;;;;;;;4962869;28;45813;-94
2022/01/31 00:16:46;;;;;;;;;6.33;6.33;;;;;;;;4951531;28;45709;-94
2022/01/31 00:19:11;;;;;;;;;7.00;6.00;;;;;;;;4970379;28;45343;-95
2022/01/31 00:21:36;;;;;;;;;9.67;6.00;;;;;;;;4960008;28;47004;-94
2022/01/31 00:24:01;;;;;;;;;6.33;5.67;;;;;;;;4968270;28;45455;-93
2022/01/31 00:26:27;;;;;;;;;10.67;10.33;;;;;;;;4968152;28;45648;-94
2022/01/31 00:28:52;;;;;;;;;7.33;7.33;;;;;;;;4979551;28;45369;-94
2022/01/31 00:31:17;;;;;;;;;8.00;7.00;;;;;;;;4962467;28;48457;-94
2022/01/31 00:33:42;;;;;;;;;11.00;6.00;;;;;;;;4957496;28;45806;-93
2022/01/31 00:36:08;;;;;;;;;9.33;6.33;;;;;;;;4958761;28;45561;-93
2022/01/31 00:38:34;;;;;;;;;7.00;6.00;;;;;;;;4985891;28;45752;-94
2022/01/31 00:40:59;;;;;;;;;11.00;6.00;;;;;;;;4974135;28;48512;-94
2022/01/31 00:43:24;;;;;;;;;14.33;7.67;;;;;;;;4971571;28;45461;-94
2022/01/31 00:46:02;;;;;;;;;8.00;7.00;;;;;;;;4961163;28;45493;-93
2022/01/31 00:48:30;;;;;;;;;7.33;5.67;;;;;;;;4960394;28;45330;-94
2022/01/31 00:50:55;;;;;;;;;7.00;4.33;;;;;;;;4940917;28;47457;-94
2022/01/31 00:53:20;;;;;;;;;7.33;5.33;;;;;;;;4972316;28;45394;-94
2022/01/31 00:55:45;;;;;;;;;7.00;6.00;;;;;;;;4958941;28;45342;-93
2022/01/31 00:58:11;;;;;;;;;6.00;6.00;;;;;;;;4968238;28;45685;-94
2022/01/31 01:00:36;;;;;;;;;5.33;4.67;;;;;;;;4956225;28;47043;-94
2022/01/31 01:03:02;;;;;;;;;5.33;4.67;;;;;;;;4941352;28;45471;-94
2022/01/31 01:05:27;;;;;;;;;8.33;6.00;;;;;;;;4962767;28;45479;-93
2022/01/31 01:07:52;;;;;;;;;7.67;3.00;;;;;;;;4970307;28;45945;-94
2022/01/31 01:10:19;;;;;;;;;7.67;3.67;;;;;;;;4960657;28;48307;-93
2022/01/31 01:12:47;;;;;;;;;7.67;6.67;;;;;;;;4972687;28;45608;-94
2022/01/31 01:15:13;;;;;;;;;7.67;4.67;;;;;;;;4967973;28;45351;-94
2022/01/31 01:17:38;;;;;;;;;8.00;4.00;;;;;;;;4959363;28;45543;-93
2022/01/31 01:20:04;;;;;;;;;5.00;4.67;;;;;;;;4959168;28;47987;-94
2022/01/31 01:22:30;;;;;;;;;3.67;2.67;;;;;;;;4963392;28;45349;-94
2022/01/31 01:24:55;;;;;;;;;7.00;3.33;;;;;;;;4975120;28;45397;-93
2022/01/31 01:27:21;;;;;;;;;4.33;2.33;;;;;;;;4974750;28;45276;-94
2022/01/31 01:29:46;;;;;;;;;3.33;3.33;;;;;;;;4980709;28;45475;-93
2022/01/31 01:32:12;;;;;;;;;2.67;2.67;;;;;;;;4945800;28;45409;-94
2022/01/31 01:34:37;;;;;;;;;2.00;2.00;;;;;;;;4958212;28;45476;-93
2022/01/31 01:37:03;;;;;;;;;11.00;3.67;;;;;;;;4969205;28;45643;-94
2022/01/31 01:39:28;;;;;;;;;3.33;3.33;;;;;;;;4964056;28;46214;-92
2022/01/31 01:41:54;;;;;;;;;3.00;3.00;;;;;;;;4962350;28;45473;-93
2022/01/31 01:44:37;;;;;;;;;6.00;2.00;;;;;;;;4965879;28;45425;-92
2022/01/31 01:47:02;;;;;;;;;6.33;2.67;;;;;;;;4971116;28;45428;-94
2022/01/31 01:49:27;;;;;;;;;5.33;4.67;;;;;;;;4964286;28;48192;-94
2022/01/31 01:51:53;;;;;;;;;9.67;5.00;;;;;;;;4959108;28;45443;-94
2022/01/31 01:54:18;;;;;;;;;6.00;3.00;;;;;;;;4977951;28;45476;-94
2022/01/31 01:56:43;;;;;;;;;3.67;2.00;;;;;;;;4960355;28;45395;-93
2022/01/31 01:59:10;;;;;;;;;8.00;4.50;;;;;;;;4956003;28;47322;-94
2022/01/31 02:01:35;;;;;;;;;5.33;3.33;;;;;;;;4992244;28;45442;-94
2022/01/31 02:04:00;;;;;;;;;5.67;3.00;;;;;;;;4974655;28;45777;-93
2022/01/31 02:06:26;;;;;;;;;8.00;3.33;;;;;;;;4959470;28;45460;-94
2022/01/31 02:08:51;;;;;;;;;5.67;3.00;;;;;;;;4985871;28;45629;-93
2022/01/31 02:11:20;;;;;;;;;3.00;3.00;;;;;;;;4959757;28;45415;-95
2022/01/31 02:13:45;;;;;;;;;6.33;3.00;;;;;;;;4967084;28;45546;-95
2022/01/31 02:16:11;;;;;;;;;6.00;3.00;;;;;;;;4985143;28;45454;-93
2022/01/31 02:18:44;;;;;;;;;6.67;4.67;;;;;;;;4972685;28;47143;-93
2022/01/31 02:21:09;;;;;;;;;7.00;4.67;;;;;;;;4992807;28;44959;-94
2022/01/31 02:23:34;;;;;;;;;4.33;4.33;;;;;;;;4989053;28;44815;-94
2022/01/31 02:26:04;;;;;;;;;6.67;2.33;;;;;;;;4978050;28;44874;-94
2022/01/31 02:28:31;;;;;;;;;7.33;4.33;;;;;;;;4961312;28;47854;-94
2022/01/31 02:30:56;;;;;;;;;2.00;2.00;;;;;;;;4951589;28;45854;-94
2022/01/31 02:33:22;;;;;;;;;9.00;1.67;;;;;;;;4984802;28;45655;-95
2022/01/31 02:35:49;;;;;;;;;3.00;2.67;;;;;;;;4958540;28;45446;-94
2022/01/31 02:38:14;;;;;;;;;4.67;2.00;;;;;;;;4956124;28;47443;-94
2022/01/31 02:40:39;;;;;;;;;3.00;2.33;;;;;;;;4972469;28;45419;-94
2022/01/31 02:43:05;;;;;;;;;6.33;3.67;;;;;;;;4969517;28;45399;-94
2022/01/31 02:45:30;;;;;;;;;4.33;2.00;;;;;;;;4971248;28;45282;-93
2022/01/31 02:47:58;;;;;;;;;3.33;2.00;;;;;;;;4962606;28;48503;-94
2022/01/31 02:50:24;;;;;;;;;2.00;2.00;;;;;;;;4962103;28;46367;-95
2022/01/31 02:52:59;;;;;;;;;3.67;3.00;;;;;;;;4954047;28;45565;-94
2022/01/31 02:55:24;;;;;;;;;5.33;2.00;;;;;;;;4973070;28;45409;-93
2022/01/31 02:57:50;;;;;;;;;4.00;1.67;;;;;;;;4955356;28;47062;-94
2022/01/31 03:00:15;;;;;;;;;4.33;3.00;;;;;;;;4939282;28;45521;-94
2022/01/31 03:02:40;;;;;;;;;5.67;1.67;;;;;;;;4983179;28;45384;-94
2022/01/31 03:05:06;;;;;;;;;2.00;2.00;;;;;;;;4964559;28;45499;-94
2022/01/31 03:07:31;;;;;;;;;2.33;2.00;;;;;;;;4956523;28;48530;-94
2022/01/31 03:09:56;;;;;;;;;8.00;3.67;;;;;;;;4970400;28;45665;-94
2022/01/31 03:12:22;;;;;;;;;5.67;2.00;;;;;;;;4962521;28;45745;-93
2022/01/31 03:14:47;;;;;;;;;2.67;2.33;;;;;;;;4950144;28;45707;-94
2022/01/31 03:17:12;;;;;;;;;3.00;3.00;;;;;;;;4953682;28;47297;-94
2022/01/31 03:19:39;;;;;;;;;3.00;3.00;;;;;;;;4958961;28;45299;-94
2022/01/31 03:22:05;;;;;;;;;1.00;1.00;;;;;;;;4954108;28;45389;-94
2022/01/31 03:24:31;;;;;;;;;1.33;1.33;;;;;;;;4954147;28;45639;-93
2022/01/31 03:26:56;;;;;;;;;3.00;3.00;;;;;;;;4955055;28;48535;-94
2022/01/31 03:29:21;;;;;;;;;2.00;1.00;;;;;;;;4955324;28;45466;-95
2022/01/31 03:31:46;;;;;;;;;3.00;2.00;;;;;;;;4949523;28;45989;-93
2022/01/31 03:34:12;;;;;;;;;2.00;2.00;;;;;;;;4955184;28;45577;-94
2022/01/31 03:36:37;;;;;;;;;1.00;1.00;;;;;;;;4961584;28;48137;-93
2022/01/31 03:39:02;;;;;;;;;2.33;1.33;;;;;;;;4954788;28;45869;-93
2022/01/31 03:41:28;;;;;;;;;2.00;2.00;;;;;;;;4953256;28;45374;-94
2022/01/31 03:43:53;;;;;;;;;2.67;1.67;;;;;;;;4967655;28;45500;-94
2022/01/31 03:46:18;;;;;;;;;0.67;0.67;;;;;;;;4969061;28;47618;-94
2022/01/31 03:48:45;;;;;;;;;3.00;1.67;;;;;;;;4955399;28;45520;-94
2022/01/31 03:51:10;;;;;;;;;4.33;3.00;;;;;;;;4957757;28;45678;-93
2022/01/31 03:53:36;;;;;;;;;3.00;3.00;;;;;;;;4962287;28;45448;-94
2022/01/31 03:56:01;;;;;;;;;4.33;2.33;;;;;;;;4966898;28;47229;-95
2022/01/31 03:58:26;;;;;;;;;4.33;1.33;;;;;;;;4961233;28;45586;-94
2022/01/31 04:00:51;;;;;;;;;3.67;1.33;;;;;;;;4951717;28;45751;-93
2022/01/31 04:03:17;;;;;;;;;3.00;1.00;;;;;;;;4935168;28;45389;-94
2022/01/31 04:05:42;;;;;;;;;3.00;2.00;;;;;;;;4960966;28;47878;-93
2022/01/31 04:08:08;;;;;;;;;1.00;1.00;;;;;;;;4964213;28;45888;-93
2022/01/31 04:10:34;;;;;;;;;1.67;1.67;;;;;;;;4958214;28;45427;-93
2022/01/31 04:12:59;;;;;;;;;1.00;1.00;;;;;;;;4937097;28;45463;-93
2022/01/31 04:15:24;;;;;;;;;2.67;1.67;;;;;;;;4967708;28;45376;-94
2022/01/31 04:17:50;;;;;;;;;2.00;0.33;;;;;;;;4949468;28;45300;-93
2022/01/31 04:20:16;;;;;;;;;2.67;1.67;;;;;;;;4936666;28;45447;-93
2022/01/31 04:22:49;;;;;;;;;2.00;1.00;;;;;;;;4943526;28;45491;-92
2022/01/31 04:25:29;;;;;;;;;1.00;1.00;;;;;;;;4954653;28;45373;-92
2022/01/31 04:28:02;;;;;;;;;0.00;0.00;;;;;;;;4954449;28;45851;-93
2022/01/31 04:30:28;;;;;;;;;2.00;1.00;;;;;;;;4955177;28;45543;-93
2022/01/31 04:32:54;;;;;;;;;5.33;1.00;;;;;;;;4959279;28;45377;-93
2022/01/31 04:35:19;;;;;;;;;1.00;1.00;;;;;;;;4956411;28;48512;-94
2022/01/31 04:37:44;;;;;;;;;0.00;0.00;;;;;;;;4957501;28;45463;-93
2022/01/31 04:40:13;;;;;;;;;1.67;1.00;;;;;;;;4954743;28;45450;-93
2022/01/31 04:42:39;;;;;;;;;0.33;0.33;;;;;;;;4972910;28;45271;-93
2022/01/31 04:45:05;;;;;;;;;0.00;0.00;;;;;;;;4959485;28;45336;-94
2022/01/31 04:47:30;;;;;;;;;2.00;1.00;;;;;;;;4956575;28;45297;-93
2022/01/31 04:49:55;;;;;;;;;1.33;1.33;;;;;;;;4953631;28;45540;-93
2022/01/31 04:52:20;;;;;;;;;1.00;0.00;;;;;;;;4956448;28;45495;-93
2022/01/31 04:54:46;;;;;;;;;4.67;1.33;;;;;;;;4954838;28;48204;-94
2022/01/31 04:57:11;;;;;;;;;0.67;0.67;;;;;;;;4958166;28;45484;-94
2022/01/31 04:59:41;;;;;;;;;1.00;1.00;;;;;;;;4964950;28;45319;-93
2022/01/31 05:02:06;;;;;;;;;1.33;1.00;;;;;;;;4966017;28;45502;-94
2022/01/31 05:04:31;;;;;;;;;2.67;2.67;;;;;;;;4956150;28;48318;-95
2022/01/31 05:06:57;;;;;;;;;3.00;0.00;;;;;;;;4952269;28;45607;-93
2022/01/31 05:09:23;;;;;;;;;2.00;1.33;;;;;;;;4960207;28;45515;-93
2022/01/31 05:11:48;;;;;;;;;1.00;1.00;;;;;;;;4968556;28;45335;-93
2022/01/31 05:14:16;;;;;;;;;1.00;1.00;;;;;;;;4976412;28;45740;-93
2022/01/31 05:16:41;;;;;;;;;1.00;1.00;;;;;;;;4975456;28;45668;-93
2022/01/31 05:19:06;;;;;;;;;1.67;1.67;;;;;;;;4973982;28;45479;-94
2022/01/31 05:21:31;;;;;;;;;2.00;0.33;;;;;;;;4960658;28;45488;-94
2022/01/31 05:23:57;;;;;;;;;1.00;1.00;;;;;;;;4959256;28;47943;-94
2022/01/31 05:26:22;;;;;;;;;2.33;1.33;;;;;;;;4957783;28;45622;-94
2022/01/31 05:28:47;;;;;;;;;3.67;1.00;;;;;;;;4958082;28;45545;-94
2022/01/31 05:31:12;;;;;;;;;2.00;2.00;;;;;;;;4970908;28;45482;-94
2022/01/31 05:33:37;;;;;;;;;2.00;0.67;;;;;;;;4959998;28;47145;-94
2022/01/31 05:36:03;;;;;;;;;0.33;0.33;;;;;;;;4962448;28;45773;-94
2022/01/31 05:38:28;;;;;;;;;2.00;1.00;;;;;;;;4959018;28;45548;-93
2022/01/31 05:40:53;;;;;;;;;3.00;1.00;;;;;;;;4961413;28;45619;-93
2022/01/31 05:43:19;;;;;;;;;1.00;1.00;;;;;;;;4957929;28;47234;-94
2022/01/31 05:45:45;;;;;;;;;1.00;1.00;;;;;;;;4958597;28;45458;-94
2022/01/31 05:48:10;;;;;;;;;2.00;1.00;;;;;;;;4979491;28;45326;-94
2022/01/31 05:50:35;;;;;;;;;2.00;2.00;;;;;;;;4961020;28;45530;-94
2022/01/31 05:53:00;;;;;;;;;1.00;1.00;;;;;;;;4978299;28;45680;-94
2022/01/31 05:55:25;;;;;;;;;3.00;2.00;;;;;;;;4976548;28;45424;-94
2022/01/31 05:57:51;;;;;;;;;4.00;1.67;;;;;;;;4979476;28;45471;-92
2022/01/31 06:00:16;;;;;;;;;2.00;2.00;;;;;;;;4992546;28;44747;-95
2022/01/31 06:02:41;;;;;;;;;2.33;0.33;;;;;;;;4989838;28;47540;-94
2022/01/31 06:05:07;;;;;;;;;0.67;0.67;;;;;;;;5011312;28;44800;-93
2022/01/31 06:07:32;;;;;;;;;1.33;1.00;;;;;;;;4982768;28;44973;-94
2022/01/31 06:09:57;;;;;;;;;2.00;2.00;;;;;;;;4973333;28;45511;-94
2022/01/31 06:12:23;;;;;;;;;3.33;1.00;;;;;;;;4967879;28;46036;-95
2022/01/31 06:14:48;;;;;;;;;2.00;1.67;;;;;;;;4961664;28;45422;-93
2022/01/31 06:17:13;;;;;;;;;2.67;1.33;;;;;;;;4956996;28;45321;-94
2022/01/31 06:19:38;;;;;;;;;6.00;1.00;;;;;;;;4953222;28;45327;-94
2022/01/31 06:22:04;;;;;;;;;2.33;2.33;;;;;;;;4966307;28;46969;-94
2022/01/31 06:24:29;;;;;;;;;2.00;2.00;;;;;;;;4957930;28;45500;-93
2022/01/31 06:26:54;;;;;;;;;2.33;1.00;;;;;;;;4958839;28;45466;-94
2022/01/31 06:29:19;;;;;;;;;2.67;1.00;;;;;;;;4957089;28;45470;-94
2022/01/31 06:31:45;;;;;;;;;2.33;1.00;;;;;;;;4950048;28;47067;-94
2022/01/31 06:34:10;;;;;;;;;1.00;1.00;;;;;;;;4952925;28;45574;-94
2022/01/31 06:36:35;;;;;;;;;1.00;1.00;;;;;;;;4956831;28;45463;-94
2022/01/31 06:39:01;;;;;;;;;2.67;2.67;;;;;;;;4958727;28;45588;-94
2022/01/31 06:41:26;;;;;;;;;1.00;0.33;;;;;;;;4955034;28;48277;-93
2022/01/31 06:43:52;;;;;;;;;1.00;1.00;;;;;;;;4955539;28;45563;-94
2022/01/31 06:46:17;;;;;;;;;0.67;0.67;;;;;;;;4956993;28;45433;-94
2022/01/31 06:48:42;;;;;;;;;1.00;1.00;;;;;;;;4956783;28;45393;-93
2022/01/31 06:51:08;;;;;;;;;2.00;2.00;;;;;;;;4958795;28;45316;-93
2022/01/31 06:53:33;;;;;;;;;2.00;1.00;;;;;;;;4957266;28;45488;-94
2022/01/31 06:55:59;;;;;;;;;2.00;0.33;;;;;;;;4955576;28;45438;-93
2022/01/31 06:58:24;;;;;;;;;2.00;1.00;;;;;;;;4954164;28;45761;-93
2022/01/31 07:00:50;;;;;;;;;0.67;0.67;;;;;;;;4953204;28;47413;-94
2022/01/31 07:03:15;;;;;;;;;1.33;1.00;;;;;;;;4957901;28;45507;-94
2022/01/31 07:05:41;;;;;;;;;3.00;1.33;;;;;;;;4955929;28;45887;-94
2022/01/31 07:08:06;;;;;;;;;1.33;0.67;;;;;;;;4957549;28;45660;-94
2022/01/31 07:10:32;;;;;;;;;1.00;1.00;;;;;;;;4954182;28;47079;-94
2022/01/31 07:13:01;;;;;;;;;3.00;2.00;;;;;;;;4952026;28;45394;-94
2022/01/31 07:26:23;;;;;;;;;1.00;1.00;;;;;;;;5014603;23;45400;-91
2022/01/31 07:28:49;;;;;;;;;0.67;0.00;;;;;;;;5008454;28;45604;-95
2022/01/31 07:31:15;;;;;;;;;0.67;0.67;;;;;;;;4989059;28;47306;-94
2022/01/31 07:33:41;;;;;;;;;8.67;2.00;;;;;;;;4985621;28;45545;-95
2022/01/31 07:36:06;;;;;;;;;0.67;0.67;;;;;;;;4975101;28;45438;-92
2022/01/31 07:38:31;;;;;;;;;2.33;1.00;;;;;;;;4991248;28;45646;-92
2022/01/31 07:40:57;;;;;;;;;3.33;1.67;;;;;;;;5005289;28;45499;-91
2022/01/31 07:43:23;;;;;;;;;1.67;1.67;;;;;;;;4989259;28;45575;-90
2022/01/31 07:45:48;;;;;;;;;1.33;1.00;;;;;;;;4989947;28;45569;-90
2022/01/31 07:48:13;;;;;;;;;1.33;1.33;;;;;;;;4996285;28;45442;-89
2022/01/31 07:50:38;;;;;;;;;1.00;1.00;;;;;;;;4972228;28;48239;-90
2022/01/31 07:53:05;;;;;;;;;2.33;2.00;;;;;;;;4975995;28;46012;-90
2022/01/31 07:55:30;;;;;;;;;1.67;0.00;;;;;;;;4984259;28;45530;-90
2022/01/31 07:57:55;;;;;;;;;1.00;1.00;;;;;;;;4964845;28;45561;-90
2022/01/31 08:00:20;;;;;;;;;3.00;2.00;;;;;;;;4965404;28;49177;-90
2022/01/31 08:02:46;;;;;;;;;3.33;2.00;;;;;;;;4956316;28;45428;-90
2022/01/31 08:05:11;;;;;;;;;1.00;1.00;;;;;;;;4975521;28;45663;-90
2022/01/31 08:07:36;;;;;;;;;4.33;2.00;;;;;;;;4994422;28;45323;-90
2022/01/31 08:10:03;;;;;;;;;2.33;2.00;;;;;;;;4974632;28;46372;-90
2022/01/31 08:12:28;;;;;;;;;2.00;2.00;;;;;;;;4993251;28;45311;-90
2022/01/31 08:15:00;;;;;;;;;1.33;1.00;;;;;;;;4994278;28;45647;-90
2022/01/31 08:17:26;;;;;;;;;2.00;2.00;;;;;;;;4978073;28;45450;-89
2022/01/31 08:19:51;;;;;;;;;1.67;1.00;;;;;;;;4976677;28;48340;-90
2022/01/31 08:22:16;;;;;;;;;2.00;2.00;;;;;;;;4992970;28;45494;-88
2022/01/31 08:24:41;;;;;;;;;1.00;1.00;;;;;;;;4993345;28;45428;-89
2022/01/31 08:27:07;;;;;;;;;4.33;2.00;;;;;;;;4968330;28;45865;-90
2022/01/31 08:29:36;;;;;;;;;2.33;1.00;;;;;;;;4968400;28;48179;-89
2022/01/31 08:32:06;;;;;;;;;2.33;1.00;;;;;;;;4973821;28;49598;-90
2022/01/31 08:37:17;;;;;;;;;2.00;2.00;;;;;;;;4922884;28;45427;-90
2022/01/31 08:39:42;;;;;;;;;1.00;1.00;;;;;;;;4934092;28;46960;-90
2022/01/31 08:42:08;;;;;;;;;4.00;2.00;;;;;;;;4939174;28;45454;-89
2022/01/31 08:44:33;;;;;;;;;1.00;1.00;;;;;;;;4915286;28;45534;-90
2022/01/31 08:46:58;;;;;;;;;2.67;2.00;;;;;;;;4924856;28;47356;-90
2022/01/31 08:49:24;;;;;;;;;2.00;2.00;;;;;;;;4937261;28;48017;-90
2022/01/31 08:51:49;;;;;;;;;0.00;0.00;;;;;;;;4929702;28;45580;-89
2022/01/31 08:54:15;;;;;;;;;2.67;2.00;;;;;;;;4927816;28;45472;-91
2022/01/31 08:56:43;;;;;;;;;4.67;1.00;;;;;;;;4926063;28;45449;-89
2022/01/31 08:59:12;;;;;;;;;3.67;1.00;;;;;;;;4908426;28;47339;-89
2022/01/31 09:01:37;;;;;;;;;2.00;1.00;;;;;;;;4921302;28;45518;-88
2022/01/31 09:04:05;;;;;;;;;4.00;2.00;;;;;;;;4939327;28;45811;-89
2022/01/31 09:06:31;;;;;;;;;6.67;3.67;;;;;;;;4930964;28;45846;-89
2022/01/31 09:09:00;;;;;;;;;1.00;1.00;;;;;;;;4931132;28;47363;-88
2022/01/31 09:11:26;;;;;;;;;1.67;1.67;;;;;;;;4927988;28;45366;-89
2022/01/31 09:13:51;;;;;;;;;3.00;2.00;;;;;;;;4948276;28;45835;-89
2022/01/31 09:16:16;;;;;;;;;3.33;1.67;;;;;;;;4993648;28;45602;-89
2022/01/31 09:18:42;;;;;;;;;5.00;3.67;;;;;;;;4989080;28;46343;-89
2022/01/31 09:21:07;;;;;;;;;3.67;3.00;;;;;;;;4966110;28;46001;-89
2022/01/31 09:23:32;;;;;;;;;3.00;2.00;;;;;;;;4971506;28;45331;-89
2022/01/31 09:25:58;;;;;;;;;5.67;2.33;;;;;;;;4985088;28;45388;-89
2022/01/31 09:28:23;;;;;;;;;3.33;1.67;;;;;;;;4969641;28;47430;-89
2022/01/31 09:30:49;;;;;;;;;3.00;3.00;;;;;;;;4970735;28;45456;-89
2022/01/31 09:33:15;;;;;;;;;6.33;2.33;;;;;;;;4963717;28;45391;-89
2022/01/31 09:35:42;;;;;;;;;3.00;2.00;;;;;;;;4967489;28;45487;-89
2022/01/31 09:38:08;;;;;;;;;7.67;3.00;;;;;;;;4985193;28;45641;-89
2022/01/31 09:40:34;;;;;;;;;3.33;1.67;;;;;;;;4987615;28;45649;-89
2022/01/31 09:45:57;;;;;;;;;1.67;1.67;;;;;;;;4914945;28;45527;-89
2022/01/31 09:48:36;;;;;;;;;7.00;2.33;;;;;;;;4921932;28;46358;-89
2022/01/31 09:51:14;;;;;;;;;2.00;2.00;;;;;;;;4931472;28;44881;-89
2022/01/31 09:53:41;;;;;;;;;4.67;2.00;;;;;;;;4912501;28;45438;-88
2022/01/31 09:56:10;;;;;;;;;6.00;3.00;;;;;;;;4916851;28;45463;-89
2022/01/31 09:58:39;;;;;;;;;2.00;1.00;;;;;;;;4915303;28;47473;-89
2022/01/31 10:01:11;;;;;;;;;2.67;1.67;;;;;;;;4911347;28;45478;-89
2022/01/31 10:03:55;;;;;;;;;2.33;1.67;;;;;;;;4910745;28;45667;-89
2022/01/31 10:06:28;;;;;;;;;1.00;1.00;;;;;;;;4900577;28;45603;-89
2022/01/31 10:08:59;;;;;;;;;5.00;2.00;;;;;;;;4911725;28;48515;-89
2022/01/31 10:11:28;;;;;;;;;4.00;2.67;;;;;;;;4912273;28;45521;-89
2022/01/31 10:16:44;;;;;;;;;4.00;1.33;;;;;;;;4916947;28;45519;-89
2022/01/31 10:19:10;;;;;;;;;1.67;0.67;;;;;;;;4894898;28;47593;-89
2022/01/31 10:21:54;;;;;;;;;3.67;2.33;;;;;;;;4898037;28;45451;-89
2022/01/31 10:24:19;;;;;;;;;2.00;2.00;;;;;;;;4976312;28;45722;-90
2022/01/31 10:26:44;;;;;;;;;1.67;1.67;;;;;;;;4981046;28;45542;-89
2022/01/31 10:29:14;;;;;;;;;4.00;1.00;;;;;;;;4975586;28;48365;-89
2022/01/31 10:31:53;;;;;;;;;2.00;2.00;;;;;;;;4974189;28;45599;-90
2022/01/31 10:34:20;;;;;;;;;3.00;1.33;;;;;;;;4989855;28;45546;-90
2022/01/31 10:36:45;;;;;;;;;0.33;0.33;;;;;;;;4990951;28;45828;-90
2022/01/31 10:43:12;;;;;;;;;5.33;1.00;;;;;;;;4984753;28;47961;-91
2022/01/31 10:45:11;;;;;;;;;1.00;1.00;;;;;;;;4994407;28;45716;-90
2022/01/31 10:53:07;;;;;;;;;2.00;1.00;;;;;;;;4993128;28;45477;-89
2022/01/31 10:55:32;;;;;;;;;3.00;3.00;;;;;;;;4964836;28;45409;-91
2022/01/31 10:58:02;;;;;;;;;4.67;1.67;;;;;;;;4993897;28;45470;-90
2022/01/31 11:00:35;;;;;;;;;4.00;2.33;;;;;;;;4994001;28;45620;-89
2022/01/31 11:03:20;;;;;;;;;7.00;3.00;;;;;;;;5004610;28;45529;-89
2022/01/31 11:05:48;;;;;;;;;1.33;1.00;;;;;;;;4972265;28;45494;-89
2022/01/31 11:08:14;;;;;;;;;1.33;1.00;;;;;;;;4990253;28;45545;-88
2022/01/31 11:10:39;;;;;;;;;0.67;0.33;;;;;;;;4974468;28;46991;-89
2022/01/31 11:13:05;;;;;;;;;0.00;0.00;;;;;;;;4962874;28;45432;-89
2022/01/31 11:15:30;;;;;;;;;0.00;0.00;;;;;;;;4979455;28;45622;-89
2022/01/31 11:17:58;;;;;;;;;1.67;1.67;;;;;;;;4994882;28;45299;-89
2022/01/31 11:20:24;;;;;;;;;0.00;0.00;;;;;;;;4971885;28;47374;-89
2022/01/31 11:22:56;;;;;;;;;3.00;1.33;;;;;;;;4978893;28;45481;-88
2022/01/31 11:25:23;;;;;;;;;2.00;1.00;;;;;;;;4990859;28;45714;-91
2022/01/31 11:27:50;;;;;;;;;3.00;2.67;;;;;;;;4973092;28;45359;-90
2022/01/31 11:30:15;;;;;;;;;1.33;1.33;;;;;;;;4972833;28;47290;-90
2022/01/31 11:32:41;;;;;;;;;2.67;1.00;;;;;;;;4985124;28;45576;-95
2022/01/31 11:35:07;;;;;;;;;2.00;1.00;;;;;;;;4967918;28;45377;-96
2022/01/31 11:37:32;;;;;;;;;3.00;1.00;;;;;;;;4968782;28;45621;-95
2022/01/31 11:40:03;;;;;;;;;0.00;0.00;;;;;;;;4994768;28;46374;-92
2022/01/31 11:42:28;;;;;;;;;0.67;0.67;;;;;;;;4989163;28;45435;-95
2022/01/31 11:45:03;;;;;;;;;3.33;1.67;;;;;;;;4961780;28;45513;-94
2022/01/31 11:47:29;;;;;;;;;1.00;1.00;;;;;;;;4972997;28;46002;-94
2022/01/31 11:49:55;;;;;;;;;0.67;0.00;;;;;;;;4977071;28;48414;-92
2022/01/31 11:52:22;;;;;;;;;4.00;1.67;;;;;;;;4976408;28;45513;-93
2022/01/31 11:54:49;;;;;;;;;0.33;0.33;;;;;;;;4979707;28;45418;-91
2022/01/31 11:57:16;;;;;;;;;0.00;0.00;;;;;;;;4968778;28;45514;-95
2022/01/31 11:59:42;;;;;;;;;1.33;1.33;;;;;;;;4958129;28;47145;-94
2022/01/31 12:02:11;;;;;;;;;1.00;1.00;;;;;;;;4972282;28;45404;-92
2022/01/31 12:04:42;;;;;;;;;0.00;0.00;;;;;;;;5001036;28;45500;-93
2022/01/31 12:07:25;;;;;;;;;2.00;2.00;;;;;;;;4993426;28;45540;-93
2022/01/31 12:09:54;;;;;;;;;1.67;1.67;;;;;;;;4976237;28;47378;-94
2022/01/31 12:12:37;;;;;;;;;2.00;2.00;;;;;;;;4978336;28;45523;-94
2022/01/31 12:15:26;;;;;;;;;3.67;1.00;;;;;;;;4975599;28;45826;-93
2022/01/31 12:21:59;;;;;;;;;3.00;3.00;;;;;;;;4992131;28;45426;-92
2022/01/31 12:23:28;;;;;;;;;3.33;2.00;;;;;;;;4985220;28;45374;-92
2022/01/31 12:25:53;;;;;;;;;1.00;1.00;;;;;;;;4976383;28;45290;-93
2022/01/31 12:28:35;;;;;;;;;0.00;0.00;;;;;;;;4965671;28;45687;-94
2022/01/31 12:31:22;;;;;;;;;0.67;0.00;;;;;;;;4964891;28;47246;-95
2022/01/31 12:33:48;;;;;;;;;2.00;1.00;;;;;;;;4963100;28;45831;-94
2022/01/31 12:36:24;;;;;;;;;1.33;1.00;;;;;;;;4970189;28;45864;-94
2022/01/31 12:38:49;;;;;;;;;1.33;1.33;;;;;;;;4968929;28;45600;-93
2022/01/31 12:41:32;;;;;;;;;0.33;0.00;;;;;;;;4970216;28;47425;-94
2022/01/31 12:44:16;;;;;;;;;0.33;0.33;;;;;;;;4970879;28;45474;-94
2022/01/31 12:46:49;;;;;;;;;0.00;0.00;;;;;;;;4963719;28;45526;-91
2022/01/31 12:49:14;;;;;;;;;1.33;0.00;;;;;;;;4966718;28;46763;-92
2022/01/31 12:51:58;;;;;;;;;1.00;0.00;;;;;;;;4978541;28;47215;-89
2022/01/31 12:54:24;;;;;;;;;1.00;0.00;;;;;;;;4993337;28;45723;-89
2022/01/31 12:56:49;;;;;;;;;1.00;1.00;;;;;;;;4991699;28;45406;-90
2022/01/31 12:59:15;;;;;;;;;1.00;0.67;;;;;;;;4991537;28;45419;-92
2022/01/31 13:01:45;;;;;;;;;0.00;0.00;;;;;;;;4975210;28;47531;-92
2022/01/31 13:04:14;;;;;;;;;0.00;0.00;;;;;;;;4990772;28;45431;-90
2022/01/31 13:06:50;;;;;;;;;1.00;1.00;;;;;;;;4995915;28;45535;-89
2022/01/31 13:09:17;;;;;;;;;0.00;0.00;;;;;;;;4966081;28;45582;-90
2022/01/31 13:11:44;;;;;;;;;1.33;0.67;;;;;;;;4978782;28;48625;-91
2022/01/31 13:14:29;;;;;;;;;3.00;1.00;;;;;;;;4990807;28;45504;-89
2022/01/31 13:17:10;;;;;;;;;0.33;0.00;;;;;;;;4991448;28;46283;-90
2022/01/31 13:19:47;;;;;;;;;3.67;1.33;;;;;;;;4997261;28;45424;-90
2022/01/31 13:22:17;;;;;;;;;6.00;3.00;;;;;;;;4960846;28;47348;-91
2022/01/31 13:24:44;;;;;;;;;2.33;1.00;;;;;;;;4978318;28;45822;-89
2022/01/31 13:27:13;;;;;;;;;1.67;1.00;;;;;;;;4990340;28;45399;-90
2022/01/31 13:29:44;;;;;;;;;0.33;0.33;;;;;;;;4996756;28;45662;-88
2022/01/31 13:32:18;;;;;;;;;3.00;0.00;;;;;;;;4977016;28;47138;-90
2022/01/31 13:34:44;;;;;;;;;1.00;0.33;;;;;;;;4974563;28;46060;-90
2022/01/31 13:37:30;;;;;;;;;0.00;0.00;;;;;;;;4990081;28;45442;-90
2022/01/31 13:39:57;;;;;;;;;1.00;1.00;;;;;;;;4979771;28;45581;-90
2022/01/31 13:42:25;;;;;;;;;1.00;1.00;;;;;;;;5007764;28;47332;-89
2022/01/31 13:44:53;;;;;;;;;1.00;1.00;;;;;;;;4985230;28;45660;-90
2022/01/31 13:47:28;;;;;;;;;0.67;0.67;;;;;;;;4985795;28;45410;-90
2022/01/31 13:49:53;;;;;;;;;0.33;0.33;;;;;;;;4993557;28;45546;-89
2022/01/31 13:52:18;;;;;;;;;1.00;0.33;;;;;;;;4979543;28;47319;-90
2022/01/31 13:54:44;;;;;;;;;2.00;2.00;;;;;;;;4974458;28;45576;-89
2022/01/31 13:57:11;;;;;;;;;1.33;1.00;;;;;;;;4988198;28;45627;-90
2022/01/31 13:59:37;;;;;;;;;2.67;2.00;;;;;;;;4976225;28;45537;-89
2022/01/31 14:02:12;;;;;;;;;3.33;1.67;;;;;;;;4997458;28;45830;-90
2022/01/31 14:04:40;;;;;;;;;2.00;0.00;;;;;;;;4978516;28;45501;-90
2022/01/31 14:07:21;;;;;;;;;1.00;1.00;;;;;;;;4975620;28;45568;-91
2022/01/31 14:09:47;;;;;;;;;4.00;1.00;;;;;;;;4994452;28;45468;-90
2022/01/31 14:12:15;;;;;;;;;0.00;0.00;;;;;;;;4978325;28;47569;-90
2022/01/31 14:14:43;;;;;;;;;2.67;0.67;;;;;;;;4989885;28;45536;-89
2022/01/31 14:17:08;;;;;;;;;1.00;1.00;;;;;;;;5001440;28;45366;-91
2022/01/31 14:19:33;;;;;;;;;1.00;0.00;;;;;;;;4975616;28;45418;-90
2022/01/31 14:21:59;;;;;;;;;0.00;0.00;;;;;;;;4959905;28;48034;-89
2022/01/31 14:24:30;;;;;;;;;1.67;0.00;;;;;;;;4979577;28;45496;-92
2022/01/31 14:26:59;;;;;;;;;3.00;1.67;;;;;;;;4991899;28;45311;-91
2022/01/31 14:29:25;;;;;;;;;1.00;0.67;;;;;;;;4977962;28;49570;-91
2022/01/31 14:31:50;;;;;;;;;0.00;0.00;;;;;;;;4993409;28;46304;-92
2022/01/31 14:34:18;;;;;;;;;0.00;0.00;;;;;;;;4974638;28;45501;-90
2022/01/31 14:36:44;;;;;;;;;2.00;1.67;;;;;;;;4980428;28;45532;-91
2022/01/31 14:49:36;;;;;;;;;1.00;1.00;;;;;;;;4996123;28;45443;-91
2022/01/31 14:52:03;;;;;;;;;1.67;1.00;;;;;;;;4992677;28;46413;-91
2022/01/31 14:54:28;;;;;;;;;3.00;1.00;;;;;;;;4997607;28;45454;-91
2022/01/31 14:56:53;;;;;;;;;0.00;0.00;;;;;;;;4976095;28;45399;-90
2022/01/31 14:59:18;;;;;;;;;2.33;1.00;;;;;;;;4977242;28;45492;-91
2022/01/31 15:01:44;;;;;;;;;0.00;0.00;;;;;;;;4977391;28;48392;-91
2022/01/31 15:04:19;;;;;;;;;0.67;0.67;;;;;;;;4976671;28;45440;-90
2022/01/31 15:06:45;;;;;;;;;2.00;1.00;;;;;;;;4989510;28;45364;-90
2022/01/31 15:09:10;;;;;;;;;1.67;1.67;;;;;;;;4978459;28;45798;-91
2022/01/31 15:11:35;;;;;;;;;3.00;3.00;;;;;;;;4973865;28;48373;-91
2022/01/31 15:14:00;;;;;;;;;3.00;2.67;;;;;;;;4970851;28;46178;-90
2022/01/31 15:16:29;;;;;;;;;3.00;3.00;;;;;;;;4977879;28;45597;-90
2022/01/31 15:18:54;;;;;;;;;4.00;2.00;;;;;;;;4990580;28;45380;-90
2022/01/31 15:21:21;;;;;;;;;1.67;1.67;;;;;;;;4977042;28;47603;-91
2022/01/31 15:23:51;;;;;;;;;1.33;1.33;;;;;;;;4980825;28;45486;-89
2022/01/31 15:26:19;;;;;;;;;7.33;2.67;;;;;;;;4987871;28;45461;-91